createdAt,value
2018-08-18T00:01:42.178Z,7.00
2018-08-18T00:04:19.994Z,6.90
2018-08-18T00:06:47.614Z,6.80
2018-08-18T00:09:15.045Z,6.80
2018-08-18T00:11:42.469Z,6.80
2018-08-18T00:14:10.665Z,6.70
2018-08-18T00:16:38.090Z,6.70
2018-08-18T00:19:05.544Z,6.70
2018-08-18T00:21:33.512Z,6.60
2018-08-18T00:24:06.147Z,6.70
2018-08-18T00:26:33.642Z,6.60
2018-08-18T00:29:01.072Z,6.60
2018-08-18T00:31:28.836Z,6.60
2018-08-18T00:33:56.524Z,6.50
2018-08-18T00:36:23.973Z,6.60
2018-08-18T00:38:52.408Z,6.50
2018-08-18T00:41:19.879Z,6.50
2018-08-18T00:43:48.304Z,6.40
2018-08-18T00:46:15.861Z,6.40
2018-08-18T00:48:43.237Z,6.40
2018-08-18T00:51:10.693Z,6.40
2018-08-18T00:53:38.109Z,6.30
2018-08-18T00:56:05.540Z,6.40
2018-08-18T00:58:33.098Z,6.30
2018-08-18T01:01:05.644Z,6.30
2018-08-18T01:03:41.789Z,6.30
2018-08-18T01:06:24.758Z,6.30
2018-08-18T01:08:54.162Z,6.40
2018-08-18T01:11:21.708Z,6.30
2018-08-18T01:13:49.665Z,6.20
2018-08-18T01:16:17.030Z,6.20
2018-08-18T01:18:44.468Z,6.20
2018-08-18T01:21:11.881Z,6.10
2018-08-18T01:23:39.252Z,6.10
2018-08-18T01:26:06.746Z,6.10
2018-08-18T01:28:34.144Z,6.10
2018-08-18T01:31:18.865Z,6.10
2018-08-18T01:33:46.253Z,6.00
2018-08-18T01:36:13.660Z,6.00
2018-08-18T01:38:41.117Z,6.10
2018-08-18T01:41:17.436Z,6.00
2018-08-18T01:43:45.918Z,6.00
2018-08-18T01:46:15.833Z,6.00
2018-08-18T01:48:44.216Z,6.00
2018-08-18T01:51:14.910Z,6.00
2018-08-18T01:53:43.173Z,6.00
2018-08-18T01:56:10.577Z,5.90
2018-08-18T01:58:38.172Z,5.90
2018-08-18T02:01:05.921Z,5.80
2018-08-18T02:03:33.319Z,5.80
2018-08-18T02:06:00.773Z,5.70
2018-08-18T02:08:28.201Z,5.70
2018-08-18T02:10:55.632Z,5.60
2018-08-18T02:13:23.085Z,5.60
2018-08-18T02:15:50.494Z,5.50
2018-08-18T02:18:17.960Z,5.50
2018-08-18T02:20:45.331Z,5.40
2018-08-18T02:23:12.767Z,5.40
2018-08-18T02:25:40.460Z,5.30
2018-08-18T02:28:24.367Z,5.30
2018-08-18T02:30:51.824Z,5.30
2018-08-18T02:33:19.248Z,5.30
2018-08-18T02:35:46.661Z,5.20
2018-08-18T02:38:14.080Z,5.10
2018-08-18T02:40:41.484Z,5.20
2018-08-18T02:43:25.937Z,5.20
2018-08-18T02:45:53.364Z,5.20
2018-08-18T02:48:20.757Z,5.10
2018-08-18T02:50:50.454Z,5.20
2018-08-18T02:53:25.909Z,5.10
2018-08-18T02:55:54.554Z,5.10
2018-08-18T02:58:22.012Z,5.00
2018-08-18T03:00:49.424Z,5.00
2018-08-18T03:03:17.408Z,5.00
2018-08-18T03:05:44.789Z,5.00
2018-08-18T03:08:12.189Z,5.00
2018-08-18T03:10:39.585Z,5.00
2018-08-18T03:13:06.988Z,5.00
2018-08-18T03:16:07.576Z,5.00
2018-08-18T03:18:37.249Z,5.10
2018-08-18T03:21:04.853Z,5.10
2018-08-18T03:23:33.230Z,5.10
2018-08-18T03:26:00.693Z,5.10
2018-08-18T03:28:29.538Z,5.10
2018-08-18T03:30:56.959Z,5.10
2018-08-18T03:33:24.343Z,5.00
2018-08-18T03:35:51.732Z,5.00
2018-08-18T03:38:19.189Z,4.90
2018-08-18T03:40:46.589Z,5.00
2018-08-18T03:43:13.948Z,4.90
2018-08-18T03:45:41.361Z,4.90
2018-08-18T03:48:08.753Z,4.90
2018-08-18T03:50:45.786Z,4.90
2018-08-18T03:53:16.683Z,4.90
2018-08-18T03:55:44.159Z,4.90
2018-08-18T03:58:11.585Z,4.90
2018-08-18T04:00:39.656Z,4.90
2018-08-18T04:03:07.341Z,5.00
2018-08-18T04:05:34.745Z,5.00
2018-08-18T04:08:02.145Z,5.10
2018-08-18T04:10:29.596Z,5.10
2018-08-18T04:12:57.801Z,5.10
2018-08-18T04:15:25.208Z,5.10
2018-08-18T04:17:52.591Z,5.20
2018-08-18T04:20:20.003Z,5.30
2018-08-18T04:22:47.456Z,5.30
2018-08-18T04:25:15.493Z,5.50
2018-08-18T04:27:45.660Z,5.50
2018-08-18T04:30:15.232Z,5.60
2018-08-18T04:32:51.535Z,5.80
2018-08-18T04:35:20.865Z,6.00
2018-08-18T04:37:48.683Z,6.30
2018-08-18T04:40:16.117Z,6.70
2018-08-18T04:42:43.565Z,7.20
2018-08-18T04:45:12.113Z,7.90
2018-08-18T04:47:39.505Z,9.00
2018-08-18T04:50:06.941Z,9.30
2018-08-18T04:52:34.407Z,9.70
2018-08-18T04:55:01.793Z,10.20
2018-08-18T04:57:29.189Z,11.00
2018-08-18T04:59:56.865Z,10.80
2018-08-18T05:02:24.290Z,10.30
2018-08-18T05:04:51.700Z,10.20
2018-08-18T05:07:19.103Z,9.70
2018-08-18T05:09:46.521Z,9.20
2018-08-18T05:12:13.937Z,9.00
2018-08-18T05:14:41.398Z,9.20
2018-08-18T05:17:08.824Z,9.90
2018-08-18T05:19:36.240Z,10.80
2018-08-18T05:22:03.731Z,11.60
2018-08-18T05:24:31.195Z,12.30
2018-08-18T05:27:03.393Z,13.20
2018-08-18T05:29:30.816Z,13.70
2018-08-18T05:31:58.237Z,14.20
2018-08-18T05:34:25.698Z,14.80
2018-08-18T05:36:53.118Z,15.70
2018-08-18T05:39:20.544Z,16.60
2018-08-18T05:41:47.980Z,17.40
2018-08-18T05:44:15.422Z,17.60
2018-08-18T05:46:42.833Z,17.70
2018-08-18T05:49:15.326Z,17.80
2018-08-18T05:51:45.015Z,18.40
2018-08-18T05:54:13.521Z,19.50
2018-08-18T05:56:41.465Z,20.30
2018-08-18T05:59:08.894Z,21.10
2018-08-18T06:01:37.753Z,22.00
2018-08-18T06:04:11.481Z,22.40
2018-08-18T06:06:40.445Z,22.70
2018-08-18T06:09:09.917Z,22.50
2018-08-18T06:11:37.633Z,21.50
2018-08-18T06:14:05.256Z,21.60
2018-08-18T06:16:32.667Z,22.00
2018-08-18T06:19:00.078Z,22.10
2018-08-18T06:21:27.505Z,22.00
2018-08-18T06:23:54.961Z,22.30
2018-08-18T06:26:24.470Z,22.30
2018-08-18T06:28:51.921Z,22.60
2018-08-18T06:31:19.337Z,22.50
2018-08-18T06:33:46.828Z,22.20
2018-08-18T06:36:14.269Z,21.80
2018-08-18T06:38:41.704Z,21.10
2018-08-18T06:41:09.230Z,20.20
2018-08-18T06:43:36.675Z,19.90
2018-08-18T06:46:04.154Z,19.60
2018-08-18T06:48:33.392Z,19.20
2018-08-18T06:51:01.379Z,19.00
2018-08-18T06:53:29.443Z,18.80
2018-08-18T06:55:59.400Z,18.60
2018-08-18T06:58:26.921Z,18.40
2018-08-18T07:00:54.435Z,18.30
2018-08-18T07:03:32.497Z,18.10
2018-08-18T07:06:00.290Z,18.00
2018-08-18T07:08:27.974Z,18.10
2018-08-18T07:10:55.458Z,18.00
2018-08-18T07:13:22.850Z,17.90
2018-08-18T07:15:50.308Z,17.80
2018-08-18T07:18:17.737Z,17.70
2018-08-18T07:20:45.218Z,17.70
2018-08-18T07:23:12.657Z,17.60
2018-08-18T07:25:47.030Z,17.60
2018-08-18T07:28:16.454Z,17.60
2018-08-18T07:30:43.894Z,17.50
2018-08-18T07:33:11.370Z,17.50
2018-08-18T07:35:38.895Z,17.50
2018-08-18T07:38:06.364Z,17.60
2018-08-18T07:40:45.673Z,17.50
2018-08-18T07:43:15.409Z,17.50
2018-08-18T07:45:42.921Z,17.50
2018-08-18T07:48:10.511Z,17.60
2018-08-18T07:50:37.939Z,17.50
2018-08-18T07:53:06.019Z,17.70
2018-08-18T07:55:34.196Z,18.00
2018-08-18T07:58:06.126Z,18.30
2018-08-18T08:00:35.904Z,18.50
2018-08-18T08:03:03.544Z,18.60
2018-08-18T08:05:31.389Z,18.70
2018-08-18T08:07:59.082Z,18.70
2018-08-18T08:10:26.664Z,18.50
2018-08-18T08:12:54.140Z,18.50
2018-08-18T08:15:21.605Z,18.60
2018-08-18T08:17:49.004Z,18.60
2018-08-18T08:20:17.311Z,18.50
2018-08-18T08:22:45.425Z,18.50
2018-08-18T08:25:12.865Z,18.50
2018-08-18T08:27:40.593Z,18.70
2018-08-18T08:30:09.825Z,18.90
2018-08-18T08:32:37.321Z,19.20
2018-08-18T08:35:05.145Z,19.50
2018-08-18T08:37:32.613Z,19.50
2018-08-18T08:39:59.993Z,19.40
2018-08-18T08:42:28.056Z,19.40
2018-08-18T08:44:56.208Z,19.40
2018-08-18T08:47:23.693Z,19.60
2018-08-18T08:49:51.553Z,19.50
2018-08-18T08:52:19.179Z,19.20
2018-08-18T08:54:46.617Z,19.20
2018-08-18T08:57:14.008Z,19.10
2018-08-18T08:59:41.605Z,19.00
2018-08-18T09:02:11.397Z,18.70
2018-08-18T09:04:38.808Z,18.60
2018-08-18T09:07:07.785Z,18.70
2018-08-18T09:09:35.328Z,18.90
2018-08-18T09:12:02.797Z,19.10
2018-08-18T09:14:30.223Z,19.30
2018-08-18T09:16:57.724Z,19.70
2018-08-18T09:19:25.163Z,20.30
2018-08-18T09:21:53.844Z,20.70
2018-08-18T09:24:23.624Z,20.90
2018-08-18T09:26:51.286Z,20.90
2018-08-18T09:29:18.804Z,20.90
2018-08-18T09:31:46.545Z,20.50
2018-08-18T09:34:14.254Z,20.10
2018-08-18T09:36:42.701Z,19.70
2018-08-18T09:39:16.833Z,19.40
2018-08-18T09:41:44.357Z,19.40
2018-08-18T09:44:43.601Z,19.30
2018-08-18T09:47:11.377Z,19.50
2018-08-18T09:49:38.788Z,19.80
2018-08-18T09:52:07.423Z,20.10
2018-08-18T09:54:35.397Z,20.50
2018-08-18T09:57:02.902Z,21.10
2018-08-18T09:59:30.366Z,21.10
2018-08-18T10:01:57.841Z,20.80
2018-08-18T10:04:25.355Z,20.90
2018-08-18T10:06:53.912Z,21.20
2018-08-18T10:09:22.575Z,21.20
2018-08-18T10:11:50.469Z,21.40
2018-08-18T10:14:18.000Z,21.20
2018-08-18T10:16:45.445Z,20.80
2018-08-18T10:19:12.937Z,20.60
2018-08-18T10:21:40.417Z,20.60
2018-08-18T10:24:08.896Z,20.50
2018-08-18T10:26:36.320Z,20.70
2018-08-18T10:29:15.161Z,20.90
2018-08-18T10:31:47.173Z,21.10
2018-08-18T10:34:15.197Z,21.50
2018-08-18T10:36:44.368Z,21.90
2018-08-18T10:39:11.791Z,21.90
2018-08-18T10:41:50.718Z,21.70
2018-08-18T10:44:18.121Z,21.70
2018-08-18T10:46:47.293Z,21.00
2018-08-18T10:50:54.145Z,20.80
2018-08-18T10:53:21.533Z,21.20
2018-08-18T10:55:48.940Z,21.50
2018-08-18T10:58:27.997Z,21.60
2018-08-18T11:00:56.044Z,21.60
2018-08-18T11:03:23.504Z,21.60
2018-08-18T11:05:50.912Z,22.00
2018-08-18T11:08:18.376Z,21.70
2018-08-18T11:10:45.769Z,21.80
2018-08-18T11:13:13.173Z,21.80
2018-08-18T11:15:41.041Z,21.70
2018-08-18T11:18:08.907Z,21.90
2018-08-18T11:20:36.347Z,21.80
2018-08-18T11:23:13.076Z,21.60
2018-08-18T11:25:43.665Z,21.70
2018-08-18T11:28:11.785Z,21.70
2018-08-18T11:30:39.399Z,21.80
2018-08-18T11:33:06.988Z,21.70
2018-08-18T11:35:34.701Z,22.10
2018-08-18T11:38:09.388Z,22.10
2018-08-18T11:40:36.873Z,21.90
2018-08-18T11:43:08.878Z,21.70
2018-08-18T11:45:37.396Z,21.60
2018-08-18T11:48:09.847Z,21.70
2018-08-18T11:50:37.390Z,21.50
2018-08-18T11:53:05.128Z,21.40
2018-08-18T11:55:32.595Z,21.30
2018-08-18T11:58:03.233Z,21.20
2018-08-18T12:00:32.855Z,21.30
2018-08-18T12:03:06.423Z,20.90
2018-08-18T12:05:38.440Z,21.00
2018-08-18T12:08:06.140Z,21.00
2018-08-18T12:10:34.153Z,21.00
2018-08-18T12:13:01.505Z,21.10
2018-08-18T12:15:28.954Z,21.10
2018-08-18T12:17:57.700Z,21.00
2018-08-18T12:20:25.178Z,20.90
2018-08-18T12:22:54.032Z,20.80
2018-08-18T12:25:21.663Z,20.60
2018-08-18T12:27:49.258Z,20.60
2018-08-18T12:30:26.714Z,20.50
2018-08-18T12:32:54.265Z,20.20
2018-08-18T12:35:24.249Z,20.10
2018-08-18T12:37:51.653Z,20.00
2018-08-18T12:40:19.124Z,20.20
2018-08-18T12:42:46.577Z,20.50
2018-08-18T12:45:14.090Z,20.80
2018-08-18T12:47:53.210Z,21.10
2018-08-18T12:50:21.538Z,21.30
2018-08-18T12:52:48.981Z,20.80
2018-08-18T12:55:17.069Z,20.60
2018-08-18T12:57:45.533Z,20.50
2018-08-18T13:00:13.003Z,20.30
2018-08-18T13:02:45.400Z,20.20
2018-08-18T13:05:12.779Z,20.10
2018-08-18T13:07:42.850Z,19.90
2018-08-18T13:10:28.970Z,19.80
2018-08-18T13:12:56.961Z,19.80
2018-08-18T13:15:24.442Z,19.90
2018-08-18T13:17:51.909Z,19.90
2018-08-18T13:20:25.040Z,20.10
2018-08-18T13:22:52.600Z,20.20
2018-08-18T13:25:20.125Z,20.50
2018-08-18T13:27:51.590Z,19.90
2018-08-18T13:30:19.779Z,20.00
2018-08-18T13:32:47.926Z,19.70
2018-08-18T13:35:15.484Z,19.60
2018-08-18T13:37:43.145Z,19.50
2018-08-18T13:40:11.580Z,19.40
2018-08-18T13:42:39.523Z,19.20
2018-08-18T13:45:07.338Z,19.00
2018-08-18T13:47:34.813Z,18.90
2018-08-18T13:50:07.869Z,19.10
2018-08-18T13:52:41.091Z,19.40
2018-08-18T13:55:09.241Z,19.70
2018-08-18T13:57:36.676Z,20.10
2018-08-18T14:00:07.471Z,20.60
2018-08-18T14:02:34.873Z,20.70
2018-08-18T14:05:02.340Z,20.70
2018-08-18T14:07:30.654Z,20.70
2018-08-18T14:10:00.411Z,20.50
2018-08-18T14:12:28.804Z,20.30
2018-08-18T14:14:56.300Z,20.30
2018-08-18T14:17:23.814Z,20.20
2018-08-18T14:19:52.001Z,19.90
2018-08-18T14:22:21.300Z,19.70
2018-08-18T14:24:48.784Z,19.60
2018-08-18T14:27:18.701Z,19.30
2018-08-18T14:29:46.085Z,19.30
2018-08-18T14:32:19.461Z,19.20
2018-08-18T14:34:54.330Z,18.90
2018-08-18T14:37:21.735Z,18.90
2018-08-18T14:39:49.214Z,18.80
2018-08-18T14:42:16.646Z,19.10
2018-08-18T14:44:44.048Z,19.20
2018-08-18T14:47:11.467Z,19.50
2018-08-18T14:49:38.890Z,19.80
2018-08-18T14:52:06.362Z,20.10
2018-08-18T14:54:33.903Z,20.30
2018-08-18T14:57:02.196Z,20.20
2018-08-18T14:59:34.714Z,20.10
2018-08-18T15:02:03.601Z,19.90
2018-08-18T15:04:31.270Z,19.80
2018-08-18T15:06:58.755Z,19.70
2018-08-18T15:09:41.109Z,19.40
2018-08-18T15:12:08.567Z,19.30
2018-08-18T15:14:35.945Z,19.30
2018-08-18T15:17:03.448Z,19.40
2018-08-18T15:19:30.882Z,19.40
2018-08-18T15:21:59.441Z,19.20
2018-08-18T15:24:26.876Z,19.10
2018-08-18T15:26:54.373Z,18.90
2018-08-18T15:29:21.782Z,19.00
2018-08-18T15:31:49.220Z,18.90
2018-08-18T15:34:16.728Z,18.90
2018-08-18T15:36:44.133Z,18.90
2018-08-18T15:39:11.612Z,18.90
2018-08-18T15:41:39.030Z,18.90
2018-08-18T15:44:09.192Z,18.90
2018-08-18T15:46:36.877Z,18.80
2018-08-18T15:49:04.384Z,18.60
2018-08-18T15:51:31.791Z,18.50
2018-08-18T15:54:02.304Z,18.60
2018-08-18T15:56:30.986Z,18.50
2018-08-18T15:58:59.272Z,18.50
2018-08-18T16:01:27.899Z,18.50
2018-08-18T16:03:56.298Z,18.60
2018-08-18T16:06:23.817Z,18.50
2018-08-18T16:08:51.721Z,18.40
2018-08-18T16:11:19.144Z,18.40
2018-08-18T16:13:46.547Z,18.50
2018-08-18T16:16:14.156Z,18.50
2018-08-18T16:18:41.582Z,18.60
2018-08-18T16:21:14.982Z,18.70
2018-08-18T16:23:42.961Z,18.70
2018-08-18T16:26:11.162Z,18.70
2018-08-18T16:28:39.069Z,18.70
2018-08-18T16:31:06.640Z,18.50
2018-08-18T16:33:34.028Z,18.50
2018-08-18T16:36:01.448Z,18.30
2018-08-18T16:38:28.922Z,18.20
2018-08-18T16:40:56.356Z,18.10
2018-08-18T16:43:23.760Z,17.90
2018-08-18T16:45:51.241Z,17.90
2018-08-18T16:48:18.700Z,17.90
2018-08-18T16:50:46.105Z,18.00
2018-08-18T16:53:14.128Z,18.00
2018-08-18T16:55:43.601Z,17.90
2018-08-18T16:58:11.040Z,17.90
2018-08-18T17:00:58.101Z,17.90
2018-08-18T17:03:30.432Z,17.90
2018-08-18T17:05:58.785Z,17.80
2018-08-18T17:08:26.401Z,17.90
2018-08-18T17:10:53.876Z,17.90
2018-08-18T17:13:21.289Z,17.90
2018-08-18T17:15:49.298Z,17.70
2018-08-18T17:18:16.736Z,17.80
2018-08-18T17:20:48.741Z,17.90
2018-08-18T17:23:16.173Z,17.70
2018-08-18T17:25:43.659Z,17.70
2018-08-18T17:28:11.318Z,17.70
2018-08-18T17:30:39.304Z,17.70
2018-08-18T17:33:06.795Z,17.60
2018-08-18T17:35:34.260Z,17.50
2018-08-18T17:38:01.725Z,17.40
2018-08-18T17:40:29.221Z,17.40
2018-08-18T17:42:57.349Z,17.40
2018-08-18T17:45:24.781Z,17.40
2018-08-18T17:47:52.350Z,17.30
2018-08-18T17:50:19.841Z,17.40
2018-08-18T17:52:47.609Z,17.40
2018-08-18T17:55:16.401Z,17.30
2018-08-18T17:57:43.808Z,17.30
2018-08-18T18:00:14.790Z,17.20
2018-08-18T18:02:48.045Z,17.20
2018-08-18T18:05:18.169Z,17.20
2018-08-18T18:07:45.616Z,17.20
2018-08-18T18:10:13.432Z,17.20
2018-08-18T18:12:40.858Z,17.20
2018-08-18T18:15:19.851Z,17.20
2018-08-18T18:17:47.311Z,17.40
2018-08-18T18:20:14.732Z,17.50
2018-08-18T18:22:48.772Z,17.40
2018-08-18T18:25:18.608Z,17.50
2018-08-18T18:27:46.440Z,17.40
2018-08-18T18:30:13.893Z,17.40
2018-08-18T18:32:41.269Z,17.40
2018-08-18T18:35:08.714Z,17.40
2018-08-18T18:37:36.173Z,17.50
2018-08-18T18:40:06.906Z,17.40
2018-08-18T18:42:34.370Z,17.40
2018-08-18T18:45:01.776Z,17.30
2018-08-18T18:47:29.173Z,17.30
2018-08-18T18:49:56.627Z,17.20
2018-08-18T18:52:24.093Z,17.20
2018-08-18T18:54:54.835Z,17.20
2018-08-18T18:57:22.278Z,17.30
2018-08-18T18:59:55.600Z,17.30
2018-08-18T19:02:25.818Z,17.30
2018-08-18T19:04:53.297Z,17.30
2018-08-18T19:07:20.818Z,17.40
2018-08-18T19:09:50.584Z,17.30
2018-08-18T19:12:18.653Z,17.30
2018-08-18T19:14:46.059Z,17.20
2018-08-18T19:17:13.449Z,17.10
2018-08-18T19:19:40.851Z,17.10
2018-08-18T19:22:08.791Z,17.00
2018-08-18T19:24:36.189Z,17.00
2018-08-18T19:27:03.605Z,17.00
2018-08-18T19:29:31.121Z,17.00
2018-08-18T19:31:59.741Z,17.00
2018-08-18T19:34:27.188Z,17.00
2018-08-18T19:36:59.246Z,17.00
2018-08-18T19:39:29.617Z,17.00
2018-08-18T19:42:02.784Z,17.00
2018-08-18T19:44:30.532Z,17.00
2018-08-18T19:46:57.945Z,17.00
2018-08-18T19:49:39.009Z,16.90
2018-08-18T19:52:10.329Z,16.90
2018-08-18T19:54:38.733Z,16.90
2018-08-18T19:57:06.150Z,16.90
2018-08-18T19:59:33.605Z,16.90
2018-08-18T20:02:01.071Z,17.00
2018-08-18T20:04:28.549Z,17.10
2018-08-18T20:06:56.033Z,17.10
2018-08-18T20:09:23.423Z,17.00
2018-08-18T20:11:50.832Z,17.10
2018-08-18T20:14:18.236Z,17.10
2018-08-18T20:16:45.652Z,17.10
2018-08-18T20:19:13.093Z,17.00
2018-08-18T20:21:40.597Z,17.00
2018-08-18T20:24:08.066Z,17.00
2018-08-18T20:26:35.465Z,17.00
2018-08-18T20:29:02.854Z,17.00
2018-08-18T20:31:30.264Z,17.00
2018-08-18T20:33:57.693Z,17.00
2018-08-18T20:36:25.087Z,17.00
2018-08-18T20:38:52.560Z,17.00
2018-08-18T20:41:19.957Z,17.00
2018-08-18T20:43:47.983Z,17.00
2018-08-18T20:46:15.437Z,17.10
2018-08-18T20:48:43.008Z,17.20
2018-08-18T20:51:10.590Z,17.20
2018-08-18T20:53:38.038Z,17.30
2018-08-18T20:56:05.508Z,17.40
2018-08-18T20:58:33.548Z,17.40
2018-08-18T21:01:01.422Z,17.40
2018-08-18T21:03:45.505Z,17.50
2018-08-18T21:06:13.626Z,17.50
2018-08-18T21:08:41.021Z,17.50
2018-08-18T21:11:08.498Z,17.50
2018-08-18T21:13:36.635Z,17.50
2018-08-18T21:16:04.090Z,17.60
2018-08-18T21:18:31.604Z,17.50
2018-08-18T21:20:59.528Z,17.50
2018-08-18T21:23:26.916Z,17.60
2018-08-18T21:25:54.347Z,17.60
2018-08-18T21:28:24.676Z,17.60
2018-08-18T21:30:52.848Z,17.60
2018-08-18T21:33:23.138Z,17.60
2018-08-18T21:35:50.568Z,17.50
2018-08-18T21:38:17.952Z,17.60
2018-08-18T21:40:45.401Z,17.50
2018-08-18T21:43:24.431Z,17.50
2018-08-18T21:45:52.384Z,17.50
2018-08-18T21:48:19.856Z,17.50
2018-08-18T21:50:47.240Z,17.50
2018-08-18T21:53:14.865Z,17.50
2018-08-18T21:55:42.282Z,17.50
2018-08-18T21:58:09.731Z,17.40
2018-08-18T22:00:41.177Z,17.40
2018-08-18T22:03:08.612Z,17.40
2018-08-18T22:05:36.074Z,17.50
2018-08-18T22:08:03.551Z,17.40
2018-08-18T22:10:31.014Z,17.40
2018-08-18T22:12:58.505Z,17.40
2018-08-18T22:15:25.974Z,17.30
2018-08-18T22:17:53.403Z,17.40
2018-08-18T22:20:21.709Z,17.50
2018-08-18T22:22:49.258Z,17.40
2018-08-18T22:25:16.608Z,17.40
2018-08-18T22:27:44.088Z,17.30
2018-08-18T22:30:13.724Z,17.40
2018-08-18T22:32:42.350Z,17.30
2018-08-18T22:35:10.709Z,17.20
2018-08-18T22:37:38.394Z,17.30
2018-08-18T22:40:06.737Z,17.20
2018-08-18T22:42:34.221Z,17.20
2018-08-18T22:45:13.216Z,17.20
2018-08-18T22:47:41.312Z,17.30
2018-08-18T22:50:08.789Z,17.20
2018-08-18T22:52:36.192Z,17.30
2018-08-18T22:55:03.721Z,17.30
2018-08-18T22:57:31.154Z,17.30
2018-08-18T22:59:58.542Z,17.30
2018-08-18T23:02:25.987Z,17.30
2018-08-18T23:04:53.374Z,17.30
2018-08-18T23:07:20.833Z,17.30
2018-08-18T23:09:48.244Z,17.30
2018-08-18T23:12:15.685Z,17.20
2018-08-18T23:14:43.114Z,17.20
2018-08-18T23:17:11.141Z,17.20
2018-08-18T23:19:38.589Z,17.10
2018-08-18T23:22:06.893Z,17.10
2018-08-18T23:24:36.816Z,17.10
2018-08-18T23:27:04.700Z,17.10
2018-08-18T23:29:32.125Z,17.10
2018-08-18T23:32:06.325Z,17.00
2018-08-18T23:34:33.748Z,17.00
2018-08-18T23:37:01.209Z,17.00
2018-08-18T23:39:28.640Z,17.00
2018-08-18T23:42:07.600Z,17.00
2018-08-18T23:44:35.013Z,16.90
2018-08-18T23:47:02.434Z,16.90
2018-08-18T23:49:29.900Z,16.90
2018-08-18T23:51:57.353Z,16.80
2018-08-18T23:54:24.796Z,16.80
2018-08-18T23:56:52.563Z,16.80
2018-08-18T23:59:21.082Z,16.70
